This is the latest recevied weather packets stored in our database for station/object KD6VEX-1. If no packets are shown the sender has not sent any weather packets the latest 1 day(s).
| Time | Temp. | Humidity | Pressure | Rain* | Wind** | Luminosity | Snow |
|---|---|---|---|---|---|---|---|
| 1836274796 | 17.22° C | 89% | 1013.8 hPa | 0 mm | 0 m/s | - | - |
| 1836274496 | 17.78° C | 89% | 1013.8 hPa | 0 mm | 0 m/s | - | - |
| 1836274346 | 17.22° C | 89% | 1013.8 hPa | 0 mm | 0 m/s | - | - |
| 1836274196 | 17.78° C | 89% | 1013.7 hPa | 0 mm | 0 m/s | - | - |
| 1836273896 | 17.78° C | 89% | 1013.7 hPa | 0 mm | 0 m/s | - | - |
| 1778054320 | 11.11° C | 86% | 1018.3 hPa | 0 mm | 0 m/s | - | - |
| 1778054020 | 11.11° C | 88% | 1018.3 hPa | 0 mm | 0 m/s | - | - |
| 1778053720 | 11.11° C | 89% | 1018.3 hPa | 0 mm | 0 m/s | - | - |
| 1778053420 | 11.11° C | 89% | 1018.2 hPa | 0 mm | 0 m/s | - | - |
| 1778053120 | 11.11° C | 89% | 1018.2 hPa | 0 mm | 0 m/s | - | - |
| 1778052820 | 11.11° C | 89% | 1018.1 hPa | 0 mm | 0 m/s | - | - |
| 1778052520 | 10.56° C | 90% | 1018.1 hPa | 0 mm | 0 m/s | - | - |
| 1778052220 | 10.56° C | 90% | 1018.1 hPa | 0 mm | 0 m/s | - | - |
| 1778051920 | 10.56° C | 89% | 1018 hPa | 0 mm | 0 m/s | - | - |
| 1778051320 | 10° C | 89% | 1018 hPa | 0 mm | 0 m/s | - | - |
| 1778050120 | 10.56° C | 88% | 1017.8 hPa | 0 mm | 0 m/s | - | - |
| 1778049766 | 10.56° C | 87% | 1017.8 hPa | 0 mm | 0 m/s | - | - |
| 1778049466 | 10.56° C | 87% | 1017.8 hPa | 0 mm | 0 m/s | - | - |
| 1778049166 | 10.56° C | 87% | 1017.7 hPa | 0 mm | 0 m/s | - | - |
| 1778048866 | 10.56° C | 88% | 1017.7 hPa | 0 mm | 0 m/s | - | - |
| 1778048545 | 11.11° C | 87% | 1017.6 hPa | 0 mm | 0 m/s | - | - |
| 1778048246 | 11.11° C | 86% | 1017.7 hPa | 0 mm | 0 m/s | - | - |
| 1778047945 | 11.11° C | 86% | 1017.7 hPa | 0 mm | 0 m/s | - | - |
| 1778047646 | 11.11° C | 85% | 1017.6 hPa | 0 mm | 0 m/s | - | - |
| 1778047345 | 11.11° C | 85% | 1017.6 hPa | 0 mm | 0 m/s | - | - |
* Rain latest hour (hover to see other rain measurements)
** Current wind speed in m/s (hover to see current wind gust speed)